createdAt,value
2022-09-03T00:03:00.186Z,99371.13
2022-09-03T00:06:11.509Z,99365.28
2022-09-03T00:09:23.573Z,99373.69
2022-09-03T00:12:30.654Z,99378.66
2022-09-03T00:15:37.245Z,99381.56
2022-09-03T00:18:44.371Z,99374.09
2022-09-03T00:21:51.784Z,99358.06
2022-09-03T00:25:00.480Z,99357.59
2022-09-03T00:28:08.372Z,99353.06
2022-09-03T00:31:18.355Z,99357.59
2022-09-03T00:34:27.025Z,99355.22
2022-09-03T00:37:38.083Z,99362.56
2022-09-03T00:40:54.520Z,99371.56
2022-09-03T00:44:14.500Z,99399.38
2022-09-03T00:47:25.109Z,99418.13
2022-09-03T00:50:36.575Z,99429.03
2022-09-03T00:53:45.828Z,99444.53
2022-09-03T00:57:06.191Z,99428.06
2022-09-03T01:00:13.115Z,99432.63
2022-09-03T01:03:24.197Z,99437.56
2022-09-03T01:06:33.945Z,99434.34
2022-09-03T01:09:49.133Z,99423.81
2022-09-03T01:13:00.990Z,99421.50
2022-09-03T01:16:11.480Z,99408.78
2022-09-03T01:19:29.027Z,99406.69
2022-09-03T01:23:01.294Z,99412.81
2022-09-03T01:26:22.990Z,99414.47
2022-09-03T01:29:35.561Z,99410.00
2022-09-03T01:32:47.754Z,99409.97
2022-09-03T01:35:54.762Z,99406.22
2022-09-03T01:39:02.828Z,99402.34
2022-09-03T01:42:20.399Z,99407.72
2022-09-03T01:45:36.269Z,99411.25
2022-09-03T01:48:44.301Z,99411.50
2022-09-03T01:51:53.200Z,99410.78
2022-09-03T01:55:07.268Z,99390.97
2022-09-03T01:58:14.194Z,99390.59
2022-09-03T02:01:23.391Z,99381.31
2022-09-03T02:04:28.984Z,99384.06
2022-09-03T02:07:34.912Z,99372.78
2022-09-03T02:10:41.787Z,99385.44
2022-09-03T02:13:49.780Z,99387.44
2022-09-03T02:16:57.332Z,99392.50
2022-09-03T02:20:05.116Z,99402.56
2022-09-03T02:23:10.422Z,99424.16
2022-09-03T02:26:18.168Z,99429.84
2022-09-03T02:29:24.075Z,99433.13
2022-09-03T02:32:30.957Z,99455.03
2022-09-03T02:35:36.474Z,99466.38
2022-09-03T02:38:42.804Z,99475.53
2022-09-03T02:41:52.488Z,99469.44
2022-09-03T02:45:01.720Z,99467.16
2022-09-03T02:48:10.846Z,99459.94
2022-09-03T02:51:16.271Z,99464.25
2022-09-03T02:54:21.356Z,99462.69
2022-09-03T02:57:27.605Z,99457.75
2022-09-03T03:00:33.320Z,99453.28
2022-09-03T03:03:40.073Z,99440.56
2022-09-03T03:06:47.699Z,99432.00
2022-09-03T03:09:52.989Z,99434.00
2022-09-03T03:12:58.668Z,99431.19
2022-09-03T03:16:06.360Z,99435.03
2022-09-03T03:19:13.285Z,99454.06
2022-09-03T03:22:18.227Z,99449.28
2022-09-03T03:25:23.871Z,99444.63
2022-09-03T03:28:29.196Z,99437.03
2022-09-03T03:31:35.289Z,99432.69
2022-09-03T03:34:41.737Z,99436.72
2022-09-03T03:37:47.103Z,99432.06
2022-09-03T03:40:52.769Z,99435.66
2022-09-03T03:43:59.170Z,99438.31
2022-09-03T03:47:06.102Z,99433.03
2022-09-03T03:50:12.690Z,99438.31
2022-09-03T03:53:18.011Z,99437.34
2022-09-03T03:56:24.377Z,99441.34
2022-09-03T03:59:29.564Z,99452.94
2022-09-03T04:02:38.905Z,99454.09
2022-09-03T04:05:55.441Z,99450.63
2022-09-03T04:09:00.586Z,99453.63
2022-09-03T04:12:08.839Z,99466.72
2022-09-03T04:15:14.316Z,99471.19
2022-09-03T04:18:19.154Z,99479.78
2022-09-03T04:21:28.499Z,99484.47
2022-09-03T04:24:33.906Z,99493.06
2022-09-03T04:27:39.365Z,99499.00
2022-09-03T04:30:44.889Z,99499.31
2022-09-03T04:33:55.017Z,99501.97
2022-09-03T04:37:01.593Z,99501.69
2022-09-03T04:40:07.445Z,99497.34
2022-09-03T04:43:12.862Z,99512.25
2022-09-03T04:46:18.520Z,99500.50
2022-09-03T04:49:25.073Z,99500.00
2022-09-03T04:52:32.057Z,99502.19
2022-09-03T04:55:38.373Z,99499.84
2022-09-03T04:58:44.421Z,99504.31
2022-09-03T05:01:49.758Z,99488.06
2022-09-03T05:04:55.377Z,99486.44
2022-09-03T05:08:02.569Z,99498.03
2022-09-03T05:11:08.640Z,99499.34
2022-09-03T05:14:13.541Z,99499.34
2022-09-03T05:17:19.032Z,99510.97
2022-09-03T05:20:24.409Z,99519.75
2022-09-03T05:23:36.937Z,99524.22
2022-09-03T05:26:43.245Z,99527.72
2022-09-03T05:29:48.861Z,99527.16
2022-09-03T05:32:54.198Z,99524.56
2022-09-03T05:36:02.311Z,99539.09
2022-09-03T05:39:09.397Z,99539.78
2022-09-03T05:42:15.178Z,99534.47
2022-09-03T05:45:30.622Z,99540.81
2022-09-03T05:48:39.582Z,99537.28
2022-09-03T05:51:44.979Z,99531.88
2022-09-03T05:54:51.692Z,99524.06
2022-09-03T05:57:57.008Z,99538.16
2022-09-03T06:01:11.091Z,99542.28
2022-09-03T06:04:17.209Z,99543.25
2022-09-03T06:07:27.416Z,99529.69
2022-09-03T06:10:40.876Z,99538.94
2022-09-03T06:13:47.570Z,99539.09
2022-09-03T06:16:53.142Z,99535.66
2022-09-03T06:20:01.265Z,99539.47
2022-09-03T06:23:07.107Z,99546.25
2022-09-03T06:26:14.651Z,99536.97
2022-09-03T06:29:20.350Z,99550.06
2022-09-03T06:32:26.007Z,99553.34
2022-09-03T06:35:31.181Z,99546.00
2022-09-03T06:38:45.731Z,99544.13
2022-09-03T06:41:53.584Z,99550.13
2022-09-03T06:44:58.663Z,99556.66
2022-09-03T06:48:03.892Z,99553.34
2022-09-03T06:51:12.302Z,99555.00
2022-09-03T06:54:17.521Z,99556.97
2022-09-03T06:57:24.040Z,99555.25
2022-09-03T07:00:30.778Z,99557.91
2022-09-03T07:03:37.249Z,99551.88
2022-09-03T07:06:44.490Z,99552.78
2022-09-03T07:09:50.012Z,99561.94
2022-09-03T07:12:57.105Z,99552.47
2022-09-03T07:16:03.096Z,99558.16
2022-09-03T07:19:09.336Z,99557.13
2022-09-03T07:22:14.684Z,99559.06
2022-09-03T07:25:20.074Z,99562.88
2022-09-03T07:28:33.646Z,99567.91
2022-09-03T07:31:41.597Z,99574.72
2022-09-03T07:34:46.793Z,99574.16
2022-09-03T07:37:52.571Z,99570.66
2022-09-03T07:41:01.744Z,99580.84
2022-09-03T07:44:09.612Z,99583.44
2022-09-03T07:47:15.123Z,99584.25
2022-09-03T07:50:26.985Z,99591.59
2022-09-03T07:53:32.388Z,99586.66
2022-09-03T07:56:38.041Z,99588.78
2022-09-03T07:59:44.994Z,99579.13
2022-09-03T08:02:50.524Z,99581.69
2022-09-03T08:06:01.912Z,99575.69
2022-09-03T08:09:08.717Z,99579.78
2022-09-03T08:12:14.184Z,99587.69
2022-09-03T08:15:20.955Z,99577.84
2022-09-03T08:18:27.249Z,99576.47
2022-09-03T08:21:32.696Z,99569.53
2022-09-03T08:24:38.555Z,99576.38
2022-09-03T08:27:43.970Z,99579.28
2022-09-03T08:30:51.004Z,99574.25
2022-09-03T08:33:57.416Z,99580.28
2022-09-03T08:37:03.012Z,99573.00
2022-09-03T08:40:08.586Z,99578.09
2022-09-03T08:43:17.557Z,99584.31
2022-09-03T08:46:26.895Z,99576.50
2022-09-03T08:49:36.049Z,99582.72
2022-09-03T08:52:47.113Z,99582.81
2022-09-03T08:55:53.808Z,99593.34
2022-09-03T08:58:59.068Z,99595.16
2022-09-03T09:02:14.931Z,99603.91
2022-09-03T09:05:23.329Z,99614.34
2022-09-03T09:08:34.021Z,99618.25
2022-09-03T09:11:48.022Z,99622.16
2022-09-03T09:15:08.093Z,99622.69
2022-09-03T09:18:19.488Z,99623.88
2022-09-03T09:21:28.862Z,99622.13
2022-09-03T09:24:37.962Z,99624.31
2022-09-03T09:27:51.814Z,99638.44
2022-09-03T09:30:58.509Z,99636.97
2022-09-03T09:34:07.350Z,99645.19
2022-09-03T09:37:14.477Z,99637.75
2022-09-03T09:40:28.243Z,99626.50
2022-09-03T09:43:33.673Z,99626.88
2022-09-03T09:46:41.141Z,99636.28
2022-09-03T09:49:53.649Z,99633.13
2022-09-03T09:53:08.596Z,99640.31
2022-09-03T09:56:22.416Z,99655.91
2022-09-03T09:59:27.906Z,99653.41
2022-09-03T10:02:35.955Z,99652.88
2022-09-03T10:05:43.986Z,99649.22
2022-09-03T10:08:49.444Z,99642.63
2022-09-03T10:12:04.521Z,99653.47
2022-09-03T10:15:18.017Z,99647.13
2022-09-03T10:18:29.282Z,99651.75
2022-09-03T10:21:40.913Z,99647.00
2022-09-03T10:24:54.591Z,99644.75
2022-09-03T10:28:02.155Z,99656.00
2022-09-03T10:31:17.789Z,99661.47
2022-09-03T10:34:27.162Z,99674.69
2022-09-03T10:37:38.814Z,99674.97
2022-09-03T10:40:47.321Z,99681.38
2022-09-03T10:44:01.309Z,99685.16
2022-09-03T10:47:12.910Z,99688.00
2022-09-03T10:50:23.345Z,99673.59
2022-09-03T10:53:40.081Z,99675.25
2022-09-03T10:56:51.628Z,99674.59
2022-09-03T11:00:05.227Z,99693.53
2022-09-03T11:03:31.285Z,99683.34
2022-09-03T11:06:43.182Z,99695.81
2022-09-03T11:09:55.160Z,99692.13
2022-09-03T11:13:04.900Z,99692.31
2022-09-03T11:16:14.346Z,99706.38
2022-09-03T11:19:21.837Z,99709.22
2022-09-03T11:22:27.068Z,99720.22
2022-09-03T11:25:35.836Z,99705.69
2022-09-03T11:28:46.360Z,99704.63
2022-09-03T11:31:57.968Z,99701.31
2022-09-03T11:35:03.328Z,99702.59
2022-09-03T11:38:21.505Z,99710.13
2022-09-03T11:41:28.937Z,99694.22
2022-09-03T11:44:37.849Z,99700.56
2022-09-03T11:47:53.850Z,99689.16
2022-09-03T11:50:59.214Z,99685.22
2022-09-03T11:54:05.629Z,99695.63
2022-09-03T11:57:13.824Z,99695.81
2022-09-03T12:00:22.678Z,99699.66
2022-09-03T12:03:29.857Z,99715.84
2022-09-03T12:06:51.933Z,99712.78
2022-09-03T12:10:12.301Z,99711.00
2022-09-03T12:13:27.336Z,99721.09
2022-09-03T12:16:56.201Z,99725.31
2022-09-03T12:20:01.208Z,99721.94
2022-09-03T12:23:07.608Z,99723.38
2022-09-03T12:26:15.030Z,99733.97
2022-09-03T12:29:27.605Z,99722.53
2022-09-03T12:32:37.442Z,99707.28
2022-09-03T12:35:58.943Z,99727.09
2022-09-03T12:39:11.844Z,99716.00
2022-09-03T12:42:21.884Z,99710.50
2022-09-03T12:46:09.856Z,99724.97
2022-09-03T12:52:21.628Z,99711.31
2022-09-03T12:55:35.044Z,99723.72
2022-09-03T12:58:44.364Z,99722.31
2022-09-03T13:01:53.507Z,99724.97
2022-09-03T13:04:58.868Z,99729.31
2022-09-03T13:08:05.908Z,99737.47
2022-09-03T13:11:11.123Z,99739.22
2022-09-03T13:14:20.116Z,99737.72
2022-09-03T13:17:33.022Z,99750.88
2022-09-03T13:20:42.471Z,99758.75
2022-09-03T13:24:00.247Z,99756.34
2022-09-03T13:27:08.496Z,99759.72
2022-09-03T13:30:17.209Z,99770.00
2022-09-03T13:33:26.538Z,99779.00
2022-09-03T13:36:40.075Z,99777.28
2022-09-03T13:39:52.569Z,99778.03
2022-09-03T13:43:03.892Z,99796.06
2022-09-03T13:46:12.632Z,99783.50
2022-09-03T13:49:46.447Z,99783.34
2022-09-03T13:52:57.434Z,99799.06
2022-09-03T13:56:06.604Z,99785.84
2022-09-03T13:59:16.837Z,99796.63
2022-09-03T14:02:28.928Z,99798.97
2022-09-03T14:05:42.680Z,99797.16
2022-09-03T14:08:58.973Z,99807.75
2022-09-03T14:12:06.660Z,99796.50
2022-09-03T14:15:21.834Z,99795.59
2022-09-03T14:18:33.923Z,99810.31
2022-09-03T14:21:46.111Z,99801.84
2022-09-03T14:24:53.906Z,99812.25
2022-09-03T14:28:14.295Z,99816.22
2022-09-03T14:31:24.050Z,99813.72
2022-09-03T14:34:39.265Z,99809.63
2022-09-03T14:37:58.188Z,99809.75
2022-09-03T14:41:07.635Z,99823.47
2022-09-03T14:44:22.881Z,99826.16
2022-09-03T14:47:35.246Z,99823.00
2022-09-03T14:50:51.857Z,99827.50
2022-09-03T14:54:13.762Z,99834.59
2022-09-03T14:57:34.577Z,99844.19
2022-09-03T15:00:48.513Z,99838.56
2022-09-03T15:04:05.372Z,99828.03
2022-09-03T15:07:18.416Z,99818.97
2022-09-03T15:10:29.158Z,99817.69
2022-09-03T15:13:35.810Z,99826.38
2022-09-03T15:16:48.576Z,99818.59
2022-09-03T15:20:07.693Z,99834.78
2022-09-03T15:23:20.643Z,99834.91
2022-09-03T15:26:50.277Z,99833.94
2022-09-03T15:30:01.924Z,99854.09
2022-09-03T15:33:12.762Z,99851.00
2022-09-03T15:36:21.029Z,99865.00
2022-09-03T15:39:29.072Z,99869.25
2022-09-03T15:42:34.201Z,99871.94
2022-09-03T15:45:52.128Z,99870.59
2022-09-03T15:49:00.816Z,99873.09
2022-09-03T15:52:24.925Z,99871.66
2022-09-03T15:55:33.471Z,99879.84
2022-09-03T15:58:44.143Z,99879.88
2022-09-03T16:01:54.182Z,99875.97
2022-09-03T16:05:06.200Z,99874.34
2022-09-03T16:08:19.091Z,99873.31
2022-09-03T16:11:31.721Z,99872.25
2022-09-03T16:14:39.579Z,99867.41
2022-09-03T16:17:53.680Z,99855.47
2022-09-03T16:21:02.596Z,99868.63
2022-09-03T16:24:14.173Z,99860.00
2022-09-03T16:27:23.420Z,99867.03
2022-09-03T16:30:36.747Z,99876.78
2022-09-03T16:33:48.998Z,99874.97
2022-09-03T16:36:59.724Z,99870.66
2022-09-03T16:40:13.327Z,99870.13
2022-09-03T16:43:40.309Z,99877.38
2022-09-03T16:46:51.089Z,99880.69
2022-09-03T16:50:01.881Z,99884.78
2022-09-03T16:53:14.137Z,99901.06
2022-09-03T16:56:34.432Z,99901.88
2022-09-03T16:59:52.181Z,99928.44
2022-09-03T17:03:13.526Z,99937.00
2022-09-03T17:06:27.971Z,99947.72
2022-09-03T17:09:39.352Z,99949.84
2022-09-03T17:12:51.349Z,99948.88
2022-09-03T17:15:59.935Z,99958.09
2022-09-03T17:19:10.327Z,99963.63
2022-09-03T17:22:23.583Z,99973.25
2022-09-03T17:25:34.877Z,99981.13
2022-09-03T17:28:48.140Z,99984.47
2022-09-03T17:32:06.159Z,100000.78
2022-09-03T17:35:15.864Z,100011.75
2022-09-03T17:38:27.753Z,100023.25
2022-09-03T17:41:37.819Z,100024.28
2022-09-03T17:44:51.420Z,100019.25
2022-09-03T17:48:06.594Z,100031.50
2022-09-03T17:51:18.697Z,100047.75
2022-09-03T17:54:33.617Z,100053.47
2022-09-03T17:57:41.501Z,100059.06
2022-09-03T18:00:53.885Z,100062.81
2022-09-03T18:04:05.172Z,100071.44
2022-09-03T18:07:15.373Z,100072.69
2022-09-03T18:10:28.805Z,100067.94
2022-09-03T18:13:59.089Z,100066.84
2022-09-03T18:17:06.224Z,100072.41
2022-09-03T18:20:29.909Z,100056.84
2022-09-03T18:23:59.913Z,100061.28
2022-09-03T18:27:46.652Z,100059.91
2022-09-03T18:31:11.850Z,100076.88
2022-09-03T18:34:35.439Z,100077.00
2022-09-03T18:37:59.392Z,100076.88
2022-09-03T18:41:32.368Z,100074.06
2022-09-03T18:45:20.703Z,100069.75
2022-09-03T18:48:53.273Z,100072.97
2022-09-03T18:52:21.083Z,100079.91
2022-09-03T18:55:49.368Z,100076.16
2022-09-03T18:59:20.530Z,100080.47
2022-09-03T19:02:48.533Z,100089.09
2022-09-03T19:06:18.563Z,100085.19
2022-09-03T19:09:51.318Z,100098.41
2022-09-03T19:13:25.661Z,100095.75
2022-09-03T19:16:57.345Z,100095.19
2022-09-03T19:20:23.905Z,100099.38
2022-09-03T19:23:48.012Z,100100.47
2022-09-03T19:27:46.090Z,100103.13
2022-09-03T19:31:05.956Z,100093.38
2022-09-03T19:34:36.057Z,100102.97
2022-09-03T19:38:02.881Z,100116.59
2022-09-03T19:41:36.189Z,100116.75
2022-09-03T19:45:06.037Z,100124.13
2022-09-03T19:48:35.014Z,100128.59
2022-09-03T19:52:01.404Z,100129.56
2022-09-03T19:55:24.777Z,100129.72
2022-09-03T19:58:54.522Z,100134.69
2022-09-03T20:02:18.296Z,100134.28
2022-09-03T20:05:41.525Z,100137.88
2022-09-03T20:09:05.131Z,100134.41
2022-09-03T20:12:10.613Z,100142.47
2022-09-03T20:15:17.404Z,100143.88
2022-09-03T20:18:31.637Z,100141.25
2022-09-03T20:21:41.041Z,100136.91
2022-09-03T20:24:56.449Z,100141.53
2022-09-03T20:28:05.964Z,100143.63
2022-09-03T20:31:18.338Z,100141.94
2022-09-03T20:34:29.105Z,100147.06
2022-09-03T20:37:41.777Z,100152.75
2022-09-03T20:40:48.005Z,100150.81
2022-09-03T20:44:06.190Z,100151.38
2022-09-03T20:47:26.646Z,100158.34
2022-09-03T20:50:43.812Z,100144.97
2022-09-03T20:53:56.810Z,100155.13
2022-09-03T20:57:08.132Z,100150.53
2022-09-03T21:00:15.266Z,100148.31
2022-09-03T21:03:23.164Z,100156.53
2022-09-03T21:06:32.650Z,100158.63
2022-09-03T21:17:35.876Z,100160.31
2022-09-03T21:20:46.122Z,100161.25
2022-09-03T21:23:58.537Z,100155.59
2022-09-03T21:27:07.410Z,100160.59
2022-09-03T21:30:15.322Z,100160.84
2022-09-03T21:33:21.816Z,100164.44
2022-09-03T21:36:34.019Z,100172.22
2022-09-03T21:44:05.390Z,100170.53
2022-09-03T21:50:45.405Z,100176.53
2022-09-03T21:53:54.679Z,100173.06
2022-09-03T22:01:36.149Z,100179.16
2022-09-03T22:04:41.983Z,100184.44
2022-09-03T22:07:53.380Z,100189.75
2022-09-03T22:11:05.539Z,100177.50
2022-09-03T22:14:12.744Z,100182.22
2022-09-03T22:17:21.995Z,100179.16
2022-09-03T22:20:27.990Z,100181.41
2022-09-03T22:23:43.796Z,100183.63
2022-09-03T22:26:52.450Z,100186.34
2022-09-03T22:30:03.881Z,100183.00
2022-09-03T22:33:15.566Z,100188.28
2022-09-03T22:36:23.454Z,100195.22
2022-09-03T22:39:32.082Z,100195.22
2022-09-03T22:42:46.258Z,100193.03
2022-09-03T22:45:58.025Z,100187.91
2022-09-03T22:49:21.219Z,100198.03
2022-09-03T22:52:32.594Z,100189.41
2022-09-03T22:55:40.520Z,100197.63
2022-09-03T22:58:51.435Z,100207.56
2022-09-03T23:02:01.561Z,100195.34
2022-09-03T23:05:08.867Z,100187.13
2022-09-03T23:08:15.629Z,100198.22
2022-09-03T23:11:25.552Z,100195.06
2022-09-03T23:14:35.475Z,100190.44
2022-09-03T23:17:42.529Z,100195.03
2022-09-03T23:20:53.261Z,100183.34
2022-09-03T23:24:02.696Z,100176.94
2022-09-03T23:27:10.256Z,100183.69
2022-09-03T23:30:17.061Z,100181.75
2022-09-03T23:33:22.303Z,100184.28
2022-09-03T23:36:57.948Z,100178.16
2022-09-03T23:40:15.697Z,100180.72
2022-09-03T23:43:39.071Z,100182.31
2022-09-03T23:46:51.515Z,100182.56
2022-09-03T23:50:02.830Z,100180.47
2022-09-03T23:53:25.065Z,100183.22
2022-09-03T23:56:48.664Z,100193.91
